首页
METAR-TAF:

METAR-TAF

机场 :

臺灣桃園國際機場

臺北, 台湾

纬度: 25-05N, 经度: 121-13E, 海拔: 33米

当前天气观测

该预报发布于20分钟前的05:00 UTC
风速20节,风向东北
温度 24°C
湿度 69%
气压 1016 hPa
能见度10公里或以上
少量云层高于1800英尺
多云层高于3000英尺

METAR: RCTP 140500Z 05020KT 9999 FEW018 BKN030 24/18 Q1016 NOSIG RMK A3001

时间: 13:20 (05:20 UTC)

预报

该预报发布于6小时和20分钟前的23:00 UTC
预报有效从14日的 00点(UTC)到 15日的 06点(UTC)
风速18节,风向东北
能见度10公里或以上
少量云层高于1500英尺
多云层高于3200英尺
短暂存在
从 14日的 18点(UTC)到 14日的 24点(UTC)
风速13节,风向
少量云层高于1500英尺
多云层高于2500英尺

TAF: RCTP 132300Z 1400/1506 05018KT 9999 FEW015 BKN032 TEMPO 1418/1424 08013KT FEW015 BKN025

超过4000个机场的气象观测和天气预报(METAR&TAF报告)。

可查询的气象台以黄色和红色小点在地图上表示。

将鼠标移到小点上方,可查看气象台名称。

然后点击查看天气观测和预报。

如需切换地图:点击带黑十字的绿色按钮放大地图;点击带横线的绿色按钮缩小地图;或者点击绿色箭头查看邻近地区的地图。


METAR-TAF: